createdAt,value
2024-02-16T00:02:58.842Z,69.81
2024-02-16T00:07:58.837Z,68.66
2024-02-16T00:12:58.979Z,68.90
2024-02-16T00:17:58.894Z,69.40
2024-02-16T00:22:58.786Z,69.17
2024-02-16T00:27:58.715Z,68.35
2024-02-16T00:32:59.897Z,68.56
2024-02-16T00:37:58.559Z,69.81
2024-02-16T00:42:58.586Z,70.42
2024-02-16T00:47:58.561Z,70.11
2024-02-16T00:52:58.311Z,69.57
2024-02-16T00:57:58.224Z,69.37
2024-02-16T01:02:58.333Z,69.51
2024-02-16T01:07:58.197Z,69.27
2024-02-16T01:12:58.081Z,69.20
2024-02-16T01:17:58.475Z,69.20
2024-02-16T01:22:57.980Z,68.87
2024-02-16T01:27:57.930Z,68.59
2024-02-16T01:32:58.085Z,68.76
2024-02-16T01:37:58.008Z,68.66
2024-02-16T01:42:57.959Z,68.66
2024-02-16T01:47:57.942Z,68.66
2024-02-16T01:52:57.647Z,68.63
2024-02-16T01:57:57.572Z,68.73
2024-02-16T02:02:57.588Z,68.46
2024-02-16T02:07:57.557Z,68.56
2024-02-16T02:12:57.466Z,68.66
2024-02-16T02:17:57.669Z,68.96
2024-02-16T02:22:57.747Z,68.56
2024-02-16T02:27:57.659Z,68.79
2024-02-16T02:32:57.245Z,68.35
2024-02-16T02:37:57.187Z,69.07
2024-02-16T02:42:57.118Z,68.66
2024-02-16T02:47:57.376Z,67.65
2024-02-16T02:52:57.010Z,68.56
2024-02-16T02:57:57.000Z,69.07
2024-02-16T03:02:57.067Z,70.83
2024-02-16T03:07:57.488Z,69.57
2024-02-16T03:12:57.067Z,68.96
2024-02-16T03:17:56.991Z,69.17
2024-02-16T03:22:56.675Z,69.07
2024-02-16T03:27:56.634Z,69.27
2024-02-16T03:32:56.690Z,70.11
2024-02-16T03:37:56.501Z,70.32
2024-02-16T03:42:56.493Z,71.03
2024-02-16T03:47:56.645Z,70.96
2024-02-16T03:52:57.453Z,70.96
2024-02-16T03:57:56.398Z,71.23
2024-02-16T04:02:56.255Z,70.11
2024-02-16T04:07:56.208Z,70.01
2024-02-16T04:12:56.240Z,71.44
2024-02-16T04:17:56.383Z,71.36
2024-02-16T04:22:56.402Z,71.44
2024-02-16T04:27:56.258Z,71.53
2024-02-16T04:32:56.218Z,71.03
2024-02-16T04:37:56.366Z,71.73
2024-02-16T04:42:55.870Z,71.73
2024-02-16T04:47:56.012Z,72.14
2024-02-16T04:52:55.950Z,71.53
2024-02-16T04:57:55.703Z,73.26
2024-02-16T05:02:55.733Z,71.64
2024-02-16T05:07:55.617Z,72.65
2024-02-16T05:12:55.924Z,72.25
2024-02-16T05:17:55.621Z,72.78
2024-02-16T05:22:55.841Z,73.50
2024-02-16T05:27:55.547Z,72.75
2024-02-16T05:32:55.491Z,73.50
2024-02-16T05:37:55.550Z,73.90
2024-02-16T05:42:56.285Z,74.01
2024-02-16T05:47:55.257Z,74.51
2024-02-16T05:52:55.320Z,75.05
2024-02-16T05:57:55.644Z,75.16
2024-02-16T06:02:55.922Z,75.80
2024-02-16T06:07:55.260Z,75.26
2024-02-16T06:12:55.874Z,74.85
2024-02-16T06:17:56.100Z,75.26
2024-02-16T06:22:54.935Z,75.56
2024-02-16T06:27:54.887Z,75.80
2024-02-16T06:32:55.150Z,75.26
2024-02-16T06:37:54.690Z,75.90
2024-02-16T06:42:54.647Z,75.56
2024-02-16T06:47:54.643Z,75.67
2024-02-16T06:52:54.605Z,74.85
2024-02-16T06:57:54.578Z,75.16
2024-02-16T07:02:55.440Z,75.02
2024-02-16T07:07:57.767Z,74.41
2024-02-16T07:12:54.258Z,74.01
2024-02-16T07:17:54.535Z,74.31
2024-02-16T07:22:54.571Z,73.87
2024-02-16T07:27:58.548Z,74.71
2024-02-16T07:32:54.259Z,74.82
2024-02-16T07:37:53.864Z,74.41
2024-02-16T07:42:53.873Z,74.78
2024-02-16T07:47:53.968Z,74.41
2024-02-16T07:52:53.766Z,74.07
2024-02-16T07:57:53.755Z,73.73
2024-02-16T08:02:53.610Z,72.92
2024-02-16T08:07:53.793Z,72.48
2024-02-16T08:12:53.539Z,72.68
2024-02-16T08:17:53.910Z,72.99
2024-02-16T08:22:53.406Z,72.48
2024-02-16T08:27:53.444Z,71.64
2024-02-16T08:32:53.302Z,71.64
2024-02-16T08:37:53.382Z,71.94
2024-02-16T08:42:53.179Z,71.97
2024-02-16T08:47:53.501Z,71.30
2024-02-16T08:52:53.103Z,71.73
2024-02-16T08:57:53.014Z,70.56
2024-02-16T09:02:52.985Z,70.86
2024-02-16T09:07:52.869Z,71.40
2024-02-16T09:12:52.860Z,70.73
2024-02-16T09:17:52.868Z,71.13
2024-02-16T09:22:52.744Z,71.03
2024-02-16T09:27:52.659Z,70.22
2024-02-16T09:32:52.707Z,69.98
2024-02-16T09:37:52.559Z,69.75
2024-02-16T09:42:52.516Z,69.95
2024-02-16T09:47:57.726Z,69.75
2024-02-16T09:52:53.501Z,70.36
2024-02-16T09:57:52.395Z,70.12
2024-02-16T10:02:52.296Z,69.68
2024-02-16T10:07:52.535Z,69.92
2024-02-16T10:12:52.364Z,69.51
2024-02-16T10:17:52.283Z,69.28
2024-02-16T10:22:52.112Z,69.28
2024-02-16T10:27:52.079Z,70.02
2024-02-16T10:32:52.032Z,70.42
2024-02-16T10:37:51.909Z,69.78
2024-02-16T10:42:51.866Z,69.85
2024-02-16T10:47:51.877Z,69.62
2024-02-16T10:52:51.754Z,68.81
2024-02-16T10:57:51.735Z,68.37
2024-02-16T11:02:51.785Z,68.44
2024-02-16T11:07:51.680Z,69.48
2024-02-16T11:12:51.581Z,69.55
2024-02-16T11:17:51.603Z,69.75
2024-02-16T11:22:51.444Z,70.26
2024-02-16T11:27:51.460Z,69.52
2024-02-16T11:32:51.386Z,70.73
2024-02-16T11:37:51.263Z,71.17
2024-02-16T11:42:52.726Z,70.76
2024-02-16T11:47:51.312Z,70.86
2024-02-16T11:52:51.072Z,71.94
2024-02-16T11:57:51.143Z,70.89
2024-02-16T12:02:50.958Z,71.70
2024-02-16T12:07:51.030Z,72.85
2024-02-16T12:12:51.008Z,71.84
2024-02-16T12:17:50.931Z,72.48
2024-02-16T12:22:50.794Z,72.44
2024-02-16T12:27:50.761Z,73.19
2024-02-16T12:32:50.800Z,73.19
2024-02-16T12:37:50.678Z,72.44
2024-02-16T12:42:50.621Z,73.08
2024-02-16T12:47:50.622Z,73.79
2024-02-16T12:52:55.217Z,74.03
2024-02-16T12:57:51.541Z,74.50
2024-02-16T13:02:50.382Z,75.34
2024-02-16T13:07:50.402Z,77.50
2024-02-16T13:12:50.374Z,80.64
2024-02-16T13:17:50.232Z,81.59
2024-02-16T13:22:50.108Z,83.55
2024-02-16T13:27:50.242Z,84.06
2024-02-16T13:32:50.062Z,84.77
2024-02-16T13:37:49.983Z,85.31
2024-02-16T13:42:49.870Z,85.07
2024-02-16T13:47:49.969Z,85.72
2024-02-16T13:52:49.791Z,86.98
2024-02-16T13:57:49.722Z,86.68
2024-02-16T14:02:49.644Z,86.88
2024-02-16T14:07:57.684Z,87.59
2024-02-16T14:12:50.636Z,88.64
2024-02-16T14:17:49.565Z,88.60
2024-02-16T14:22:49.474Z,89.15
2024-02-16T14:27:49.480Z,90.71
2024-02-16T14:32:52.294Z,89.96
2024-02-16T14:37:49.251Z,90.71
2024-02-16T14:42:49.187Z,89.96
2024-02-16T14:47:49.281Z,89.96
2024-02-16T14:52:49.068Z,90.36
2024-02-16T14:57:49.117Z,89.86
2024-02-16T15:02:51.536Z,90.31
2024-02-16T15:07:49.015Z,90.47
2024-02-16T15:12:48.941Z,90.97
2024-02-16T15:17:48.970Z,91.47
2024-02-16T15:22:53.131Z,90.96
2024-02-16T15:27:48.787Z,90.31
2024-02-16T15:32:51.349Z,89.96
2024-02-16T15:37:48.647Z,90.11
2024-02-16T15:42:48.622Z,90.55
2024-02-16T15:47:48.558Z,90.55
2024-02-16T15:52:48.464Z,91.20
2024-02-16T15:57:48.584Z,91.30
2024-02-16T16:02:48.483Z,91.51
2024-02-16T16:07:48.327Z,90.66
2024-02-16T16:12:48.316Z,91.10
2024-02-16T16:17:48.360Z,91.30
2024-02-16T16:22:48.240Z,91.25
2024-02-16T16:27:48.289Z,91.05
2024-02-16T16:32:48.304Z,90.53
2024-02-16T16:37:48.127Z,90.64
2024-02-16T16:42:48.010Z,90.70
2024-02-16T16:47:48.048Z,91.25
2024-02-16T16:52:48.024Z,91.00
2024-02-16T16:57:47.888Z,90.53
2024-02-16T17:02:47.760Z,90.39
2024-02-16T17:07:47.741Z,91.19
2024-02-16T17:12:47.674Z,90.53
2024-02-16T17:17:47.633Z,91.14
2024-02-16T17:22:47.630Z,90.78
2024-02-16T17:27:47.739Z,90.78
2024-02-16T17:32:47.466Z,91.09
2024-02-16T17:37:47.518Z,90.48
2024-02-16T17:42:47.390Z,90.31
2024-02-16T17:47:47.304Z,89.91
2024-02-16T17:52:47.446Z,89.64
2024-02-16T17:57:47.389Z,90.16
2024-02-16T18:02:49.621Z,89.14
2024-02-16T18:07:47.102Z,89.99
2024-02-16T18:12:47.114Z,89.18
2024-02-16T18:17:46.949Z,88.53
2024-02-16T18:22:46.825Z,88.42
2024-02-16T18:27:46.867Z,87.61
2024-02-16T18:32:46.775Z,87.71
2024-02-16T18:37:46.706Z,88.12
2024-02-16T18:42:46.824Z,87.67
2024-02-16T18:47:46.729Z,88.02
2024-02-16T18:52:46.511Z,87.71
2024-02-16T18:57:46.648Z,87.81
2024-02-16T19:02:46.478Z,88.12
2024-02-16T19:07:46.562Z,88.12
2024-02-16T19:12:46.577Z,88.42
2024-02-16T19:17:46.386Z,88.98
2024-02-16T19:22:46.268Z,88.02
2024-02-16T19:27:46.230Z,87.67
2024-02-16T19:32:46.231Z,87.61
2024-02-16T19:37:46.182Z,87.71
2024-02-16T19:42:46.093Z,87.71
2024-02-16T19:47:45.950Z,88.12
2024-02-16T19:52:45.944Z,88.53
2024-02-16T19:57:47.448Z,88.87
2024-02-16T20:02:45.958Z,88.83
2024-02-16T20:07:45.868Z,88.87
2024-02-16T20:12:45.678Z,88.53
2024-02-16T20:17:45.684Z,88.26
2024-02-16T20:22:45.539Z,88.32
2024-02-16T20:27:45.566Z,88.02
2024-02-16T20:32:45.473Z,88.77
2024-02-16T20:37:45.405Z,88.32
2024-02-16T20:42:45.453Z,88.98
2024-02-16T20:47:45.298Z,88.87
2024-02-16T20:52:45.284Z,88.73
2024-02-16T20:57:45.252Z,88.46
2024-02-16T21:02:45.233Z,88.53
2024-02-16T21:07:45.280Z,88.12
2024-02-16T21:12:45.228Z,88.26
2024-02-16T21:17:44.978Z,88.46
2024-02-16T21:22:44.904Z,88.87
2024-02-16T21:27:44.868Z,88.98
2024-02-16T21:32:44.830Z,88.98
2024-02-16T21:37:44.758Z,89.01
2024-02-16T21:42:44.688Z,88.26
2024-02-16T21:47:44.816Z,88.20
2024-02-16T21:52:44.632Z,88.92
2024-02-16T21:57:44.617Z,88.92
2024-02-16T22:02:44.462Z,88.10
2024-02-16T22:07:44.525Z,88.71
2024-02-16T22:12:44.437Z,88.10
2024-02-16T22:17:44.388Z,88.65
2024-02-16T22:22:44.359Z,88.31
2024-02-16T22:27:44.281Z,88.65
2024-02-16T22:32:44.205Z,89.10
2024-02-16T22:37:44.106Z,88.90
2024-02-16T22:42:44.136Z,88.69
2024-02-16T22:47:47.573Z,89.40
2024-02-16T22:52:44.347Z,88.39
2024-02-16T22:57:43.981Z,88.32
2024-02-16T23:02:43.889Z,88.49
2024-02-16T23:07:43.749Z,88.59
2024-02-16T23:12:44.693Z,88.18
2024-02-16T23:17:43.785Z,88.39
2024-02-16T23:22:43.688Z,89.34
2024-02-16T23:27:43.593Z,88.67
2024-02-16T23:32:43.475Z,88.73
2024-02-16T23:37:43.519Z,89.28
2024-02-16T23:42:43.356Z,88.63
2024-02-16T23:47:43.374Z,88.63
2024-02-16T23:52:43.348Z,88.02
2024-02-16T23:57:43.358Z,88.17
